Serrinha, Brazil
Current Conditions -  °F | °C
As of 10:00 PM on Sunday 21 Dec 2014 (Local Time) from SBSV Reporting Station
Scattered Clouds Scattered Clouds  
Wind Chill: 79°   Ceiling: Unl
Heat Index: 82°   Visibility: 6mi
Dew Point: 72°   Wind: 9mph
Humidity: 78%   Direction: 80°E
Pressure: 29.97"   Gusts: NA
Location:  11.66°S, 39.01°W
Report Text: SBSV 220100Z 08008KT 9999 SCT017 26/22 Q1015
Loading
Personal Weather Stations






























Interactive Weather Map New forecast layout! Learn more

10-Day Weather Forecast

Advertisements
Track Severe Weather on mobile